createdAt,value
2023-04-02T00:01:02.419Z,74.99
2023-04-02T00:03:42.460Z,74.79
2023-04-02T00:06:32.965Z,74.61
2023-04-02T00:09:04.728Z,75.08
2023-04-02T00:11:41.308Z,74.79
2023-04-02T00:14:21.831Z,74.83
2023-04-02T00:16:48.647Z,75.06
2023-04-02T00:19:23.236Z,75.55
2023-04-02T00:21:52.269Z,75.47
2023-04-02T00:24:22.053Z,75.95
2023-04-02T00:26:50.815Z,75.90
2023-04-02T00:29:19.341Z,75.83
2023-04-02T00:31:53.928Z,76.26
2023-04-02T00:34:32.647Z,76.94
2023-04-02T00:36:59.484Z,76.60
2023-04-02T00:39:29.836Z,77.01
2023-04-02T00:42:07.781Z,76.57
2023-04-02T00:44:38.652Z,77.47
2023-04-02T00:47:15.680Z,77.33
2023-04-02T00:49:43.141Z,77.17
2023-04-02T00:52:16.507Z,77.17
2023-04-02T00:55:07.944Z,77.21
2023-04-02T00:57:35.069Z,76.98
2023-04-02T01:00:13.946Z,77.26
2023-04-02T01:02:41.506Z,77.12
2023-04-02T01:05:17.670Z,77.31
2023-04-02T01:08:16.877Z,77.27
2023-04-02T01:11:01.671Z,77.33
2023-04-02T01:13:42.306Z,76.93
2023-04-02T01:16:30.506Z,77.43
2023-04-02T01:19:35.618Z,77.29
2023-04-02T01:22:19.443Z,77.66
2023-04-02T01:24:47.356Z,77.21
2023-04-02T01:27:29.519Z,77.70
2023-04-02T01:29:58.659Z,77.53
2023-04-02T01:32:28.599Z,77.16
2023-04-02T01:34:56.195Z,76.82
2023-04-02T01:37:44.959Z,76.03
2023-04-02T01:40:47.025Z,75.75
2023-04-02T01:43:23.208Z,74.87
2023-04-02T01:45:50.251Z,74.77
2023-04-02T01:48:24.792Z,74.23
2023-04-02T01:50:54.953Z,74.38
2023-04-02T01:53:25.135Z,74.32
2023-04-02T01:56:00.803Z,73.95
2023-04-02T01:58:31.744Z,74.08
2023-04-02T02:01:06.011Z,74.02
2023-04-02T02:03:33.818Z,74.08
2023-04-02T02:06:02.138Z,73.50
2023-04-02T02:08:31.417Z,73.74
2023-04-02T02:10:58.511Z,73.68
2023-04-02T02:13:25.459Z,73.46
2023-04-02T02:15:52.348Z,73.58
2023-04-02T02:18:23.481Z,73.68
2023-04-02T02:20:52.304Z,73.85
2023-04-02T02:23:20.812Z,73.66
2023-04-02T02:25:48.006Z,73.40
2023-04-02T02:28:17.562Z,74.10
2023-04-02T02:30:49.469Z,73.80
2023-04-02T02:33:28.938Z,74.31
2023-04-02T02:36:01.124Z,74.17
2023-04-02T02:38:48.993Z,74.06
2023-04-02T02:41:26.567Z,74.18
2023-04-02T02:44:29.763Z,74.26
2023-04-02T02:47:01.580Z,74.55
2023-04-02T02:49:36.065Z,74.72
2023-04-02T02:52:08.451Z,74.69
2023-04-02T02:54:43.215Z,74.57
2023-04-02T02:57:14.284Z,74.97
2023-04-02T02:59:42.419Z,75.31
2023-04-02T03:02:09.108Z,75.29
2023-04-02T03:04:36.169Z,75.65
2023-04-02T03:07:05.957Z,75.65
2023-04-02T03:10:09.939Z,75.81
2023-04-02T03:12:41.651Z,76.57
2023-04-02T03:15:16.578Z,76.97
2023-04-02T03:17:49.709Z,76.75
2023-04-02T03:20:36.469Z,76.77
2023-04-02T03:23:13.616Z,77.58
2023-04-02T03:25:46.342Z,77.43
2023-04-02T03:28:30.392Z,78.09
2023-04-02T03:31:21.856Z,78.17
2023-04-02T03:33:55.787Z,78.11
2023-04-02T03:36:43.599Z,78.76
2023-04-02T03:39:25.334Z,79.08
2023-04-02T03:42:15.698Z,80.04
2023-04-02T03:44:55.396Z,80.08
2023-04-02T03:47:24.816Z,80.09
2023-04-02T03:50:01.425Z,80.40
2023-04-02T03:52:30.051Z,80.62
2023-04-02T03:54:59.352Z,80.70
2023-04-02T03:57:42.764Z,80.68
2023-04-02T04:00:21.280Z,81.07
2023-04-02T04:02:52.826Z,81.30
2023-04-02T04:05:32.019Z,81.23
2023-04-02T04:08:03.503Z,80.93
2023-04-02T04:10:31.174Z,81.00
2023-04-02T04:13:07.095Z,80.75
2023-04-02T04:15:39.728Z,80.48
2023-04-02T04:18:43.047Z,80.65
2023-04-02T04:21:29.824Z,80.42
2023-04-02T04:24:03.732Z,80.05
2023-04-02T04:26:53.586Z,79.66
2023-04-02T04:29:40.782Z,79.53
2023-04-02T04:32:27.131Z,79.65
2023-04-02T04:35:01.136Z,79.30
2023-04-02T04:37:35.223Z,79.64
2023-04-02T04:40:17.488Z,79.81
2023-04-02T04:42:45.767Z,80.01
2023-04-02T04:45:43.460Z,80.53
2023-04-02T04:48:23.081Z,80.30
2023-04-02T04:51:01.918Z,80.64
2023-04-02T04:53:30.309Z,80.30
2023-04-02T04:56:09.165Z,80.65
2023-04-02T04:58:49.729Z,80.57
2023-04-02T05:01:28.549Z,80.29
2023-04-02T05:04:00.072Z,80.05
2023-04-02T05:06:43.782Z,80.49
2023-04-02T05:09:41.419Z,80.16
2023-04-02T05:12:35.886Z,80.50
2023-04-02T05:15:16.861Z,80.29
2023-04-02T05:18:10.706Z,80.20
2023-04-02T05:20:53.557Z,80.01
2023-04-02T05:23:27.100Z,79.75
2023-04-02T05:26:16.817Z,79.95
2023-04-02T05:28:51.777Z,79.28
2023-04-02T05:31:29.747Z,79.41
2023-04-02T05:33:57.142Z,79.26
2023-04-02T05:36:27.019Z,79.36
2023-04-02T05:38:56.391Z,78.37
2023-04-02T05:41:36.960Z,77.93
2023-04-02T05:44:30.182Z,77.83
2023-04-02T05:47:12.499Z,77.70
2023-04-02T05:49:39.320Z,77.94
2023-04-02T05:52:12.300Z,76.69
2023-04-02T05:54:47.496Z,76.00
2023-04-02T05:57:20.508Z,74.46
2023-04-02T05:59:53.568Z,73.41
2023-04-02T06:02:31.268Z,72.86
2023-04-02T06:05:04.296Z,73.26
2023-04-02T06:08:03.393Z,71.79
2023-04-02T06:10:34.157Z,72.95
2023-04-02T06:13:05.959Z,72.27
2023-04-02T06:15:35.109Z,72.13
2023-04-02T06:18:16.872Z,72.67
2023-04-02T06:20:43.673Z,73.00
2023-04-02T06:23:32.833Z,72.34
2023-04-02T06:26:04.444Z,71.73
2023-04-02T06:29:11.057Z,71.08
2023-04-02T06:31:50.669Z,71.15
2023-04-02T06:34:23.328Z,69.85
2023-04-02T06:36:51.944Z,69.54
2023-04-02T06:39:23.756Z,68.82
2023-04-02T06:42:07.632Z,68.38
2023-04-02T06:44:38.467Z,68.48
2023-04-02T06:47:25.395Z,67.87
2023-04-02T06:50:12.639Z,67.54
2023-04-02T06:52:58.850Z,67.18
2023-04-02T06:56:03.731Z,68.08
2023-04-02T06:58:30.635Z,68.13
2023-04-02T07:00:57.705Z,68.11
2023-04-02T07:03:27.612Z,67.14
2023-04-02T07:05:55.060Z,66.71
2023-04-02T07:08:22.144Z,67.14
2023-04-02T07:10:48.942Z,66.86
2023-04-02T07:13:17.613Z,66.11
2023-04-02T07:15:50.219Z,66.18
2023-04-02T07:18:27.658Z,66.21
2023-04-02T07:20:54.755Z,66.48
2023-04-02T07:23:21.524Z,66.85
2023-04-02T07:25:50.516Z,66.41
2023-04-02T07:28:17.465Z,66.19
2023-04-02T07:30:45.516Z,66.15
2023-04-02T07:33:21.057Z,65.21
2023-04-02T07:35:48.981Z,64.05
2023-04-02T07:38:16.120Z,63.96
2023-04-02T07:40:42.853Z,64.59
2023-04-02T07:43:09.703Z,64.89
2023-04-02T07:45:36.611Z,64.38
2023-04-02T07:48:11.463Z,62.80
2023-04-02T07:50:38.543Z,62.99
2023-04-02T07:53:07.119Z,63.12
2023-04-02T07:55:33.943Z,61.96
2023-04-02T07:58:00.792Z,63.13
2023-04-02T08:00:28.996Z,62.91
2023-04-02T08:02:56.288Z,61.72
2023-04-02T08:05:23.372Z,60.91
2023-04-02T08:07:54.887Z,61.59
2023-04-02T08:10:21.833Z,60.56
2023-04-02T08:12:49.599Z,60.85
2023-04-02T08:15:16.932Z,60.07
2023-04-02T08:17:44.402Z,58.21
2023-04-02T08:20:22.321Z,58.17
2023-04-02T08:22:50.091Z,58.46
2023-04-02T08:25:16.889Z,59.36
2023-04-02T08:27:46.468Z,59.71
2023-04-02T08:30:13.835Z,56.97
2023-04-02T08:32:41.534Z,57.00
2023-04-02T08:35:11.056Z,58.28
2023-04-02T08:37:37.897Z,56.62
2023-04-02T08:40:07.258Z,57.14
2023-04-02T08:42:39.717Z,56.47
2023-04-02T08:45:25.049Z,55.44
2023-04-02T08:47:56.255Z,55.26
2023-04-02T08:50:31.069Z,55.78
2023-04-02T08:53:00.574Z,56.39
2023-04-02T08:55:35.026Z,55.04
2023-04-02T08:58:20.354Z,54.60
2023-04-02T09:00:53.612Z,54.49
2023-04-02T09:03:29.830Z,54.15
2023-04-02T09:05:57.652Z,55.19
2023-04-02T09:08:27.096Z,56.37
2023-04-02T09:11:02.320Z,55.19
2023-04-02T09:13:33.048Z,55.92
2023-04-02T09:16:11.780Z,54.33
2023-04-02T09:18:39.357Z,54.30
2023-04-02T09:21:21.156Z,53.34
2023-04-02T09:23:48.906Z,53.39
2023-04-02T09:26:30.831Z,52.51
2023-04-02T09:29:12.496Z,52.43
2023-04-02T09:31:43.830Z,52.75
2023-04-02T09:34:33.712Z,53.13
2023-04-02T09:37:18.494Z,52.44
2023-04-02T09:39:45.473Z,52.82
2023-04-02T09:42:35.101Z,53.74
2023-04-02T09:45:18.067Z,53.53
2023-04-02T09:47:44.748Z,53.76
2023-04-02T09:50:34.833Z,53.76
2023-04-02T09:53:31.356Z,54.23
2023-04-02T09:56:24.383Z,54.79
2023-04-02T09:59:12.464Z,55.40
2023-04-02T10:01:57.912Z,55.98
2023-04-02T10:04:46.887Z,56.33
2023-04-02T10:07:41.354Z,57.12
2023-04-02T10:10:21.106Z,56.94
2023-04-02T10:13:23.068Z,57.44
2023-04-02T10:16:09.931Z,57.43
2023-04-02T10:18:44.448Z,58.24
2023-04-02T10:21:12.931Z,58.58
2023-04-02T10:23:39.959Z,57.59
2023-04-02T10:26:51.173Z,58.26
2023-04-02T10:29:52.807Z,57.33
2023-04-02T10:32:30.691Z,57.62
2023-04-02T10:35:27.355Z,56.99
2023-04-02T10:37:59.790Z,57.25
2023-04-02T10:40:29.571Z,57.80
2023-04-02T10:43:14.646Z,57.63
2023-04-02T10:45:49.222Z,57.80
2023-04-02T10:48:24.766Z,58.21
2023-04-02T10:51:02.523Z,59.46
2023-04-02T10:53:59.173Z,56.92
2023-04-02T10:56:28.532Z,57.23
2023-04-02T10:59:05.494Z,54.58
2023-04-02T11:01:34.782Z,54.68
2023-04-02T11:04:38.184Z,54.35
2023-04-02T11:07:14.599Z,54.38
2023-04-02T11:09:46.098Z,54.10
2023-04-02T11:12:25.909Z,50.92
2023-04-02T11:14:55.882Z,52.88
2023-04-02T11:17:23.438Z,51.09
2023-04-02T11:19:50.171Z,50.83
2023-04-02T11:22:17.622Z,47.71
2023-04-02T11:24:54.817Z,48.68
2023-04-02T11:27:30.755Z,46.29
2023-04-02T11:30:24.119Z,46.21
2023-04-02T11:32:51.270Z,46.91
2023-04-02T11:35:33.215Z,45.84
2023-04-02T11:38:22.540Z,45.49
2023-04-02T11:40:56.828Z,45.94
2023-04-02T11:43:35.973Z,47.29
2023-04-02T11:46:16.636Z,48.58
2023-04-02T11:48:43.710Z,44.89
2023-04-02T11:51:22.829Z,44.44
2023-04-02T11:53:51.623Z,45.54
2023-04-02T11:56:32.656Z,44.29
2023-04-02T11:59:27.122Z,46.49
2023-04-02T12:02:12.817Z,44.95
2023-04-02T12:04:59.638Z,45.55
2023-04-02T12:07:35.264Z,42.38
2023-04-02T12:10:20.306Z,40.67
2023-04-02T12:12:47.181Z,38.04
2023-04-02T12:15:44.681Z,39.55
2023-04-02T12:18:17.492Z,40.40
2023-04-02T12:20:53.006Z,40.52
2023-04-02T12:23:29.626Z,38.34
2023-04-02T12:26:01.754Z,36.93
2023-04-02T12:28:30.024Z,35.51
2023-04-02T12:31:18.735Z,33.66
2023-04-02T12:33:45.862Z,34.96
2023-04-02T12:36:14.207Z,31.63
2023-04-02T12:38:49.956Z,33.17
2023-04-02T12:41:35.961Z,33.48
2023-04-02T12:44:15.560Z,30.95
2023-04-02T12:46:43.536Z,31.33
2023-04-02T12:49:38.809Z,31.40
2023-04-02T12:52:14.769Z,29.50
2023-04-02T12:54:46.660Z,29.61
2023-04-02T12:57:25.836Z,30.84
2023-04-02T12:59:57.392Z,30.75
2023-04-02T13:02:26.985Z,27.77
2023-04-02T13:05:01.937Z,27.03
2023-04-02T13:07:33.668Z,24.28
2023-04-02T13:10:03.519Z,28.87
2023-04-02T13:12:36.346Z,25.81
2023-04-02T13:15:09.127Z,26.58
2023-04-02T13:18:02.550Z,24.11
2023-04-02T13:20:40.100Z,24.30
2023-04-02T13:23:46.159Z,24.90
2023-04-02T13:26:25.895Z,24.47
2023-04-02T13:29:17.005Z,24.33
2023-04-02T13:31:43.901Z,25.20
2023-04-02T13:34:10.654Z,23.69
2023-04-02T13:36:37.507Z,24.99
2023-04-02T13:39:04.962Z,26.42
2023-04-02T13:41:36.560Z,29.13
2023-04-02T13:44:04.096Z,27.18
2023-04-02T13:46:33.121Z,26.66
2023-04-02T13:49:00.153Z,27.38
2023-04-02T13:51:36.140Z,27.26
2023-04-02T13:54:03.924Z,27.54
2023-04-02T13:56:31.157Z,27.85
2023-04-02T13:58:57.763Z,27.94
2023-04-02T14:01:25.336Z,27.65
2023-04-02T14:03:54.138Z,26.86
2023-04-02T14:06:23.736Z,27.32
2023-04-02T14:08:59.616Z,29.01
2023-04-02T14:11:41.335Z,28.50
2023-04-02T14:14:33.834Z,26.45
2023-04-02T14:17:38.232Z,26.18
2023-04-02T14:20:17.355Z,26.50
2023-04-02T14:23:05.621Z,27.68
2023-04-02T14:25:43.340Z,29.87
2023-04-02T14:28:23.754Z,32.48
2023-04-02T14:31:05.514Z,31.39
2023-04-02T14:33:37.824Z,29.57
2023-04-02T14:36:12.900Z,29.43
2023-04-02T14:39:03.023Z,31.03
2023-04-02T14:41:44.489Z,32.64
2023-04-02T14:44:12.023Z,33.53
2023-04-02T14:46:39.573Z,34.57
2023-04-02T14:49:08.952Z,34.62
2023-04-02T14:51:49.961Z,35.35
2023-04-02T14:54:59.165Z,36.81
2023-04-02T14:57:44.668Z,38.54
2023-04-02T15:00:28.839Z,39.83
2023-04-02T15:03:16.681Z,39.81
2023-04-02T15:05:47.996Z,40.67
2023-04-02T15:09:02.083Z,42.33
2023-04-02T15:11:41.866Z,42.20
2023-04-02T15:14:26.210Z,42.66
2023-04-02T15:16:53.015Z,43.42
2023-04-02T15:19:20.023Z,44.14
2023-04-02T15:22:11.120Z,44.37
2023-04-02T15:25:03.120Z,47.06
2023-04-02T15:28:05.615Z,48.82
2023-04-02T15:30:45.333Z,50.36
2023-04-02T15:33:30.270Z,52.49
2023-04-02T15:36:17.787Z,53.04
2023-04-02T15:38:49.441Z,54.68
2023-04-02T15:41:26.267Z,55.28
2023-04-02T15:44:15.921Z,57.55
2023-04-02T15:47:06.229Z,57.92
2023-04-02T15:49:57.442Z,59.55
2023-04-02T15:52:58.766Z,61.74
2023-04-02T15:55:46.049Z,62.02
2023-04-02T15:58:39.434Z,63.59
2023-04-02T16:01:25.820Z,63.35
2023-04-02T16:04:19.925Z,64.03
2023-04-02T16:07:05.941Z,64.22
2023-04-02T16:09:48.595Z,64.39
2023-04-02T16:12:20.495Z,64.68
2023-04-02T16:14:49.476Z,65.83
2023-04-02T16:17:32.616Z,65.20
2023-04-02T16:20:15.080Z,65.06
2023-04-02T16:22:57.294Z,64.76
2023-04-02T16:25:31.469Z,64.01
2023-04-02T16:28:35.811Z,62.17
2023-04-02T16:31:20.886Z,59.65
2023-04-02T16:34:15.469Z,58.58
2023-04-02T16:37:19.314Z,58.97
2023-04-02T16:40:07.499Z,59.86
2023-04-02T16:42:49.038Z,60.97
2023-04-02T16:45:34.651Z,61.78
2023-04-02T16:48:04.128Z,62.26
2023-04-02T16:51:15.671Z,62.72
2023-04-02T16:54:06.485Z,62.78
2023-04-02T16:56:59.068Z,64.06
2023-04-02T16:59:45.839Z,64.66
2023-04-02T17:02:21.565Z,67.03
2023-04-02T17:04:51.361Z,66.73
2023-04-02T17:07:27.314Z,67.44
2023-04-02T17:10:03.180Z,70.78
2023-04-02T17:12:39.807Z,69.17
2023-04-02T17:15:27.852Z,69.54
2023-04-02T17:18:00.832Z,70.58
2023-04-02T17:20:28.379Z,70.96
2023-04-02T17:22:56.127Z,70.62
2023-04-02T17:25:26.899Z,71.49
2023-04-02T17:27:55.977Z,72.60
2023-04-02T17:30:42.267Z,72.56
2023-04-02T17:33:15.347Z,72.28
2023-04-02T17:36:09.615Z,71.33
2023-04-02T17:39:08.413Z,67.12
2023-04-02T17:41:49.546Z,67.76
2023-04-02T17:44:26.822Z,68.31
2023-04-02T17:47:15.056Z,68.66
2023-04-02T17:49:53.190Z,66.20
2023-04-02T17:52:37.962Z,64.07
2023-04-02T17:55:07.205Z,66.11
2023-04-02T17:58:05.193Z,65.11
2023-04-02T18:01:00.942Z,65.54
2023-04-02T18:04:04.236Z,65.58
2023-04-02T18:06:37.933Z,65.66
2023-04-02T18:09:22.897Z,66.77
2023-04-02T18:11:52.759Z,64.74
2023-04-02T18:14:33.411Z,64.88
2023-04-02T18:17:24.641Z,64.17
2023-04-02T18:20:17.742Z,64.02
2023-04-02T18:23:00.544Z,64.61
2023-04-02T18:26:16.444Z,67.22
2023-04-02T18:28:45.994Z,66.02
2023-04-02T18:31:28.226Z,66.90
2023-04-02T18:34:19.828Z,66.30
2023-04-02T18:37:01.492Z,64.03
2023-04-02T18:39:45.398Z,63.86
2023-04-02T18:42:43.608Z,64.21
2023-04-02T18:45:24.040Z,64.35
2023-04-02T18:47:59.471Z,64.06
2023-04-02T18:50:28.900Z,64.32
2023-04-02T18:52:55.623Z,65.56
2023-04-02T18:55:32.915Z,64.44
2023-04-02T18:58:22.854Z,65.36
2023-04-02T19:00:50.614Z,66.65
2023-04-02T19:03:26.143Z,65.14
2023-04-02T19:06:03.002Z,64.12
2023-04-02T19:08:38.507Z,65.18
2023-04-02T19:11:12.038Z,64.39
2023-04-02T19:13:38.781Z,64.16
2023-04-02T19:16:17.276Z,65.07
2023-04-02T19:19:13.132Z,63.31
2023-04-02T19:21:53.864Z,65.41
2023-04-02T19:24:42.484Z,63.56
2023-04-02T19:27:33.901Z,63.08
2023-04-02T19:30:15.797Z,62.01
2023-04-02T19:33:06.537Z,63.98
2023-04-02T19:35:47.979Z,63.67
2023-04-02T19:38:20.463Z,63.13
2023-04-02T19:40:59.007Z,63.44
2023-04-02T19:43:25.868Z,63.94
2023-04-02T19:45:54.448Z,64.31
2023-04-02T19:48:32.401Z,65.14
2023-04-02T19:50:59.094Z,64.32
2023-04-02T19:53:25.640Z,63.56
2023-04-02T19:55:52.409Z,61.20
2023-04-02T19:58:29.130Z,61.66
2023-04-02T20:00:56.200Z,62.84
2023-04-02T20:03:23.390Z,61.75
2023-04-02T20:05:50.722Z,62.17
2023-04-02T20:08:17.652Z,62.35
2023-04-02T20:10:44.991Z,62.62
2023-04-02T20:13:11.858Z,61.69
2023-04-02T20:15:39.920Z,62.03
2023-04-02T20:18:07.706Z,62.28
2023-04-02T20:20:34.505Z,62.37
2023-04-02T20:23:01.370Z,61.71
2023-04-02T20:25:27.928Z,61.97
2023-04-02T20:27:54.541Z,62.13
2023-04-02T20:30:21.104Z,62.59
2023-04-02T20:32:47.751Z,62.16
2023-04-02T20:35:14.423Z,62.67
2023-04-02T20:37:41.970Z,64.00
2023-04-02T20:40:10.012Z,63.37
2023-04-02T20:42:36.795Z,64.11
2023-04-02T20:45:05.218Z,62.89
2023-04-02T20:47:32.198Z,63.10
2023-04-02T20:49:58.753Z,63.35
2023-04-02T20:52:25.424Z,63.08
2023-04-02T20:54:53.259Z,62.82
2023-04-02T20:57:21.882Z,61.99
2023-04-02T20:59:48.790Z,62.54
2023-04-02T21:02:15.546Z,62.49
2023-04-02T21:04:42.155Z,62.13
2023-04-02T21:07:08.689Z,61.65
2023-04-02T21:09:35.424Z,61.87
2023-04-02T21:12:01.957Z,61.80
2023-04-02T21:14:31.344Z,61.97
2023-04-02T21:16:57.922Z,63.02
2023-04-02T21:19:24.506Z,63.33
2023-04-02T21:21:51.071Z,62.39
2023-04-02T21:24:17.628Z,63.05
2023-04-02T21:26:46.446Z,62.64
2023-04-02T21:29:13.562Z,62.39
2023-04-02T21:31:41.097Z,63.07
2023-04-02T21:34:09.254Z,64.34
2023-04-02T21:36:39.599Z,64.11
2023-04-02T21:39:12.232Z,64.56
2023-04-02T21:41:41.741Z,64.23
2023-04-02T21:44:10.589Z,64.20
2023-04-02T21:46:39.230Z,65.41
2023-04-02T21:49:08.354Z,64.78
2023-04-02T21:51:37.536Z,64.78
2023-04-02T21:54:04.768Z,64.98
2023-04-02T21:56:34.499Z,64.98
2023-04-02T21:59:02.247Z,64.78
2023-04-02T22:01:32.008Z,63.30
2023-04-02T22:04:01.387Z,63.34
2023-04-02T22:06:30.969Z,63.36
2023-04-02T22:09:00.427Z,62.21
2023-04-02T22:11:33.630Z,62.58
2023-04-02T22:14:02.915Z,62.55
2023-04-02T22:16:31.304Z,63.50
2023-04-02T22:19:01.477Z,62.79
2023-04-02T22:21:32.475Z,63.05
2023-04-02T22:24:01.296Z,63.26
2023-04-02T22:26:28.274Z,63.15
2023-04-02T22:28:54.887Z,63.33
2023-04-02T22:31:25.104Z,64.76
2023-04-02T22:33:53.048Z,63.22
2023-04-02T22:36:20.815Z,62.02
2023-04-02T22:38:47.692Z,62.15
2023-04-02T22:41:17.004Z,63.43
2023-04-02T22:43:44.952Z,64.01
2023-04-02T22:46:14.171Z,64.07
2023-04-02T22:48:41.298Z,63.99
2023-04-02T22:51:09.495Z,62.55
2023-04-02T22:53:36.999Z,62.77
2023-04-02T22:56:10.416Z,63.78
2023-04-02T22:58:37.919Z,63.42
2023-04-02T23:01:11.837Z,63.40
2023-04-02T23:03:38.630Z,63.99
2023-04-02T23:06:07.802Z,63.72
2023-04-02T23:08:35.465Z,63.95
2023-04-02T23:11:10.546Z,63.23
2023-04-02T23:13:38.124Z,62.73
2023-04-02T23:16:07.671Z,62.49
2023-04-02T23:18:35.800Z,62.19
2023-04-02T23:21:02.821Z,61.25
2023-04-02T23:23:31.395Z,60.39
2023-04-02T23:26:04.990Z,59.96
2023-04-02T23:28:31.577Z,60.32
2023-04-02T23:30:58.214Z,60.49
2023-04-02T23:33:24.788Z,60.82
2023-04-02T23:35:51.415Z,61.45
2023-04-02T23:38:18.008Z,61.50
2023-04-02T23:40:44.609Z,63.20
2023-04-02T23:43:11.363Z,62.18
2023-04-02T23:45:38.188Z,60.53
2023-04-02T23:48:05.164Z,61.69
2023-04-02T23:50:31.915Z,61.06
2023-04-02T23:52:58.467Z,60.93
2023-04-02T23:55:25.300Z,61.75
2023-04-02T23:57:52.018Z,61.79
